New Rooks County (RCP)
Stockton, KS
Field Elevation: 1999
Lat: 39°20.80N  Long: 99°18.28W
CTAF/Unicom Freq: 122.9000
   
    
Weather Advisories
2015-03-29   07:19 Z
Altimeter 29.78" Hg
Wind 200° @ 21 KT
Gusts 26 KT
Visibility 10 SM
Temperature 15° C (59° F)
Dewpoint 6° C (43° F)
Relative Humidity 54%
Density Altitude --
Condensation Altitude 6,400 feet
Wind and Runways
Indicated Runway = 18
Headwind = 20 kt
Crosswind = 7 kt
History
 
 
 
More Info
All DigiWx sites map
NOAA Forecast
 
Airport IQ 5010
(FLV) Sherman Airfield
(K68) Garnett Municipal Airport
 
about DigiWx
 
FAA Disclaimer: The data displayed is for advisory purposes only and is not to be used for flight planning or operations. For official data, please call (not available) to hear the current automated AWOS voice message.
  METAR RCP 290719Z AUTO 20021G26KT VIS 10 SM 15/06 A2978